sensor_id;sensor_type;location;lat;lon;timestamp;pressure;altitude;pressure_sealevel;temperature;humidity
57594;BME280;43423;46.510;6.686;2023-02-10T00:02:23;98196.59;;;0.98;59.41
57594;BME280;43423;46.510;6.686;2023-02-10T00:04:49;98196.97;;;0.96;59.72
57594;BME280;43423;46.510;6.686;2023-02-10T00:07:19;98191.19;;;0.98;59.59
57594;BME280;43423;46.510;6.686;2023-02-10T00:09:45;98192.34;;;0.97;59.10
57594;BME280;43423;46.510;6.686;2023-02-10T00:12:10;98196.25;;;1.03;59.33
57594;BME280;43423;46.510;6.686;2023-02-10T00:14:37;98193.13;;;1.01;59.75
57594;BME280;43423;46.510;6.686;2023-02-10T00:17:03;98195.44;;;0.99;59.84
57594;BME280;43423;46.510;6.686;2023-02-10T00:19:29;98200.38;;;0.90;59.64
57594;BME280;43423;46.510;6.686;2023-02-10T00:21:57;98200.00;;;0.91;59.83
57594;BME280;43423;46.510;6.686;2023-02-10T00:24:23;98199.59;;;0.89;59.48
57594;BME280;43423;46.510;6.686;2023-02-10T00:26:49;98200.38;;;0.90;59.37
57594;BME280;43423;46.510;6.686;2023-02-10T00:29:15;98205.78;;;0.90;59.48
57594;BME280;43423;46.510;6.686;2023-02-10T00:31:41;98196.91;;;0.93;58.79
57594;BME280;43423;46.510;6.686;2023-02-10T00:34:10;98202.69;;;0.88;58.95
57594;BME280;43423;46.510;6.686;2023-02-10T00:36:36;98205.41;;;0.88;59.42
57594;BME280;43423;46.510;6.686;2023-02-10T00:39:01;98200.69;;;0.84;59.65
57594;BME280;43423;46.510;6.686;2023-02-10T00:41:27;98204.97;;;0.86;59.24
57594;BME280;43423;46.510;6.686;2023-02-10T00:43:53;98206.19;;;0.88;58.41
57594;BME280;43423;46.510;6.686;2023-02-10T00:46:19;98215.00;;;0.81;58.55
57594;BME280;43423;46.510;6.686;2023-02-10T00:48:46;98211.13;;;0.82;58.97
57594;BME280;43423;46.510;6.686;2023-02-10T00:51:13;98213.78;;;0.79;59.17
57594;BME280;43423;46.510;6.686;2023-02-10T00:53:38;98223.06;;;0.78;58.71
57594;BME280;43423;46.510;6.686;2023-02-10T00:56:04;98220.81;;;0.83;58.81
57594;BME280;43423;46.510;6.686;2023-02-10T00:58:30;98216.78;;;0.70;58.83
57594;BME280;43423;46.510;6.686;2023-02-10T01:00:56;98220.66;;;0.69;58.81
57594;BME280;43423;46.510;6.686;2023-02-10T01:03:23;98219.38;;;0.56;58.20
57594;BME280;43423;46.510;6.686;2023-02-10T01:05:49;98214.88;;;0.37;59.21
57594;BME280;43423;46.510;6.686;2023-02-10T01:08:15;98225.16;;;0.24;59.02
57594;BME280;43423;46.510;6.686;2023-02-10T01:10:41;98227.03;;;0.20;59.60
57594;BME280;43423;46.510;6.686;2023-02-10T01:13:08;98221.63;;;0.20;59.19
57594;BME280;43423;46.510;6.686;2023-02-10T01:15:33;98220.06;;;0.19;59.43
57594;BME280;43423;46.510;6.686;2023-02-10T01:17:59;98221.81;;;0.35;59.37
57594;BME280;43423;46.510;6.686;2023-02-10T01:20:25;98221.88;;;0.42;59.05
57594;BME280;43423;46.510;6.686;2023-02-10T01:22:52;98225.88;;;0.51;57.64
57594;BME280;43423;46.510;6.686;2023-02-10T01:25:17;98217.72;;;0.48;58.26
57594;BME280;43423;46.510;6.686;2023-02-10T01:27:43;98223.47;;;0.46;58.37
57594;BME280;43423;46.510;6.686;2023-02-10T01:30:09;98227.94;;;0.32;57.76
57594;BME280;43423;46.510;6.686;2023-02-10T01:32:35;98228.00;;;0.35;58.73
57594;BME280;43423;46.510;6.686;2023-02-10T01:35:00;98224.03;;;0.29;58.33
57594;BME280;43423;46.510;6.686;2023-02-10T01:37:26;98233.75;;;0.04;58.41
57594;BME280;43423;46.510;6.686;2023-02-10T01:39:51;98235.06;;;-0.13;58.99
57594;BME280;43423;46.510;6.686;2023-02-10T01:42:17;98234.72;;;-0.08;60.21
57594;BME280;43423;46.510;6.686;2023-02-10T01:47:08;98244.47;;;-0.04;60.17
57594;BME280;43423;46.510;6.686;2023-02-10T01:49:40;98234.84;;;-0.01;59.98
57594;BME280;43423;46.510;6.686;2023-02-10T01:52:36;98244.09;;;-0.02;60.57
57594;BME280;43423;46.510;6.686;2023-02-10T01:55:05;98239.03;;;-0.07;60.37
57594;BME280;43423;46.510;6.686;2023-02-10T01:57:33;98236.91;;;-0.17;60.30
57594;BME280;43423;46.510;6.686;2023-02-10T02:00:01;98240.09;;;-0.12;61.12
57594;BME280;43423;46.510;6.686;2023-02-10T02:02:27;98240.56;;;-0.06;61.49
57594;BME280;43423;46.510;6.686;2023-02-10T02:04:58;98240.56;;;-0.06;61.99
57594;BME280;43423;46.510;6.686;2023-02-10T02:07:28;98244.53;;;0.00;62.29
57594;BME280;43423;46.510;6.686;2023-02-10T02:09:55;98244.09;;;-0.02;62.19
57594;BME280;43423;46.510;6.686;2023-02-10T02:15:23;98241.63;;;0.16;62.23
57594;BME280;43423;46.510;6.686;2023-02-10T02:18:12;98233.88;;;0.14;62.61
57594;BME280;43423;46.510;6.686;2023-02-10T02:21:08;98235.59;;;0.26;62.75
57594;BME280;43423;46.510;6.686;2023-02-10T02:23:52;98227.94;;;0.32;62.92
57594;BME280;43423;46.510;6.686;2023-02-10T02:29:37;98215.00;;;0.48;63.86
57594;BME280;43423;46.510;6.686;2023-02-10T02:34:50;98211.88;;;0.16;64.32
57594;BME280;43423;46.510;6.686;2023-02-10T02:37:29;98223.06;;;0.14;64.79
57594;BME280;43423;46.510;6.686;2023-02-10T02:39:55;98222.34;;;0.17;64.53
57594;BME280;43423;46.510;6.686;2023-02-10T02:42:26;98223.16;;;0.21;63.81
57594;BME280;43423;46.510;6.686;2023-02-10T02:44:56;98226.22;;;0.16;63.43
57594;BME280;43423;46.510;6.686;2023-02-10T02:50:47;98224.50;;;0.05;62.33
57594;BME280;43423;46.510;6.686;2023-02-10T02:53:28;98231.63;;;0.16;61.89
57594;BME280;43423;46.510;6.686;2023-02-10T02:58:56;98230.31;;;0.37;61.53
57594;BME280;43423;46.510;6.686;2023-02-10T03:01:39;98226.06;;;0.36;60.13
57594;BME280;43423;46.510;6.686;2023-02-10T03:04:06;98229.91;;;0.35;59.92
57594;BME280;43423;46.510;6.686;2023-02-10T03:06:34;98233.78;;;0.34;59.94
57594;BME280;43423;46.510;6.686;2023-02-10T03:08:59;98226.06;;;0.36;60.20
57594;BME280;43423;46.510;6.686;2023-02-10T03:11:25;98232.25;;;0.36;60.16
57594;BME280;43423;46.510;6.686;2023-02-10T03:13:51;98222.47;;;0.28;59.62
57594;BME280;43423;46.510;6.686;2023-02-10T03:16:16;98229.31;;;0.48;59.48
57594;BME280;43423;46.510;6.686;2023-02-10T03:18:42;98222.69;;;0.46;59.62
57594;BME280;43423;46.510;6.686;2023-02-10T03:21:07;98237.78;;;0.47;59.86
57594;BME280;43423;46.510;6.686;2023-02-10T03:23:33;98230.53;;;0.54;59.77
57594;BME280;43423;46.510;6.686;2023-02-10T03:25:59;98234.00;;;0.51;60.20
57594;BME280;43423;46.510;6.686;2023-02-10T03:28:25;98241.34;;;0.51;60.57
57594;BME280;43423;46.510;6.686;2023-02-10T03:30:51;98237.66;;;0.36;60.24
57594;BME280;43423;46.510;6.686;2023-02-10T03:33:17;98232.53;;;0.27;60.84
57594;BME280;43423;46.510;6.686;2023-02-10T03:35:44;98253.59;;;0.41;60.91
57594;BME280;43423;46.510;6.686;2023-02-10T03:38:11;98237.84;;;0.50;61.42
57594;BME280;43423;46.510;6.686;2023-02-10T03:40:36;98237.44;;;0.48;61.15
57594;BME280;43423;46.510;6.686;2023-02-10T03:43:03;98231.97;;;0.45;60.64
57594;BME280;43423;46.510;6.686;2023-02-10T03:45:28;98234.97;;;0.36;60.53
57594;BME280;43423;46.510;6.686;2023-02-10T03:47:54;98241.78;;;0.26;60.30
57594;BME280;43423;46.510;6.686;2023-02-10T03:50:19;98236.41;;;0.30;60.71
57594;BME280;43423;46.510;6.686;2023-02-10T03:52:45;98237.97;;;0.31;60.19
57594;BME280;43423;46.510;6.686;2023-02-10T03:55:10;98240.56;;;0.20;60.13
57594;BME280;43423;46.510;6.686;2023-02-10T03:57:40;98235.13;;;0.20;60.09
57594;BME280;43423;46.510;6.686;2023-02-10T04:00:07;98241.38;;;0.24;59.26
57594;BME280;43423;46.510;6.686;2023-02-10T04:02:33;98244.88;;;0.25;58.74
57594;BME280;43423;46.510;6.686;2023-02-10T04:04:58;98235.44;;;0.15;57.38
57594;BME280;43423;46.510;6.686;2023-02-10T04:07:24;98242.44;;;0.16;56.16
57594;BME280;43423;46.510;6.686;2023-02-10T04:09:49;98240.25;;;0.25;54.92
57594;BME280;43423;46.510;6.686;2023-02-10T04:12:15;98245.69;;;0.29;54.52
57594;BME280;43423;46.510;6.686;2023-02-10T04:14:41;98259.88;;;0.49;54.21
57594;BME280;43423;46.510;6.686;2023-02-10T04:17:06;98242.19;;;0.28;54.75
57594;BME280;43423;46.510;6.686;2023-02-10T04:19:32;98252.28;;;0.32;54.90
57594;BME280;43423;46.510;6.686;2023-02-10T04:21:57;98253.53;;;0.38;54.85
57594;BME280;43423;46.510;6.686;2023-02-10T04:24:23;98251.25;;;0.40;55.07
57594;BME280;43423;46.510;6.686;2023-02-10T04:26:48;98252.06;;;0.44;54.68
57594;BME280;43423;46.510;6.686;2023-02-10T04:29:14;98240.00;;;0.38;54.41
57594;BME280;43423;46.510;6.686;2023-02-10T04:31:39;98243.53;;;0.42;55.17
57594;BME280;43423;46.510;6.686;2023-02-10T04:34:05;98247.41;;;0.41;54.88
57594;BME280;43423;46.510;6.686;2023-02-10T04:36:30;98264.81;;;0.43;54.17
57594;BME280;43423;46.510;6.686;2023-02-10T04:38:56;98260.31;;;-0.02;56.13
57594;BME280;43423;46.510;6.686;2023-02-10T04:41:22;98256.97;;;-0.45;57.62
57594;BME280;43423;46.510;6.686;2023-02-10T04:43:47;98258.47;;;-0.47;58.55
57594;BME280;43423;46.510;6.686;2023-02-10T04:46:13;98260.63;;;-0.57;58.14
57594;BME280;43423;46.510;6.686;2023-02-10T04:48:39;98259.84;;;-0.57;57.89
57594;BME280;43423;46.510;6.686;2023-02-10T04:51:12;98260.03;;;-0.69;58.83
57594;BME280;43423;46.510;6.686;2023-02-10T04:53:38;98266.28;;;-0.65;59.02
57594;BME280;43423;46.510;6.686;2023-02-10T04:56:05;98268.28;;;-0.62;59.68
57594;BME280;43423;46.510;6.686;2023-02-10T04:58:32;98276.06;;;-0.57;60.04
57594;BME280;43423;46.510;6.686;2023-02-10T05:00:58;98276.13;;;-0.53;60.31
57594;BME280;43423;46.510;6.686;2023-02-10T05:03:24;98277.94;;;-0.38;59.91
57594;BME280;43423;46.510;6.686;2023-02-10T05:05:50;98276.53;;;-0.29;59.72
57594;BME280;43423;46.510;6.686;2023-02-10T05:08:17;98271.28;;;-0.18;59.62
57594;BME280;43423;46.510;6.686;2023-02-10T05:10:47;98275.72;;;-0.06;59.38
57594;BME280;43423;46.510;6.686;2023-02-10T05:13:13;98277.69;;;-0.03;58.93
57594;BME280;43423;46.510;6.686;2023-02-10T05:15:38;98274.72;;;0.06;58.36
57594;BME280;43423;46.510;6.686;2023-02-10T05:18:04;98279.16;;;0.17;58.34
57594;BME280;43423;46.510;6.686;2023-02-10T05:20:29;98279.56;;;0.19;58.60
57594;BME280;43423;46.510;6.686;2023-02-10T05:22:55;98279.88;;;0.14;58.20
57594;BME280;43423;46.510;6.686;2023-02-10T05:25:20;98285.97;;;0.08;57.50
57594;BME280;43423;46.510;6.686;2023-02-10T05:27:46;98283.88;;;-0.03;58.54
57594;BME280;43423;46.510;6.686;2023-02-10T05:30:12;98278.09;;;-0.28;59.59
57594;BME280;43423;46.510;6.686;2023-02-10T05:32:39;98279.41;;;-0.64;61.19
57594;BME280;43423;46.510;6.686;2023-02-10T05:35:05;98276.22;;;-0.92;61.59
57594;BME280;43423;46.510;6.686;2023-02-10T05:37:31;98275.31;;;-1.00;61.84
57594;BME280;43423;46.510;6.686;2023-02-10T05:39:56;98277.66;;;-0.98;62.24
57594;BME280;43423;46.510;6.686;2023-02-10T05:42:22;98277.72;;;-0.95;62.42
57594;BME280;43423;46.510;6.686;2023-02-10T05:44:48;98274.16;;;-0.99;62.21
57594;BME280;43423;46.510;6.686;2023-02-10T05:47:14;98279.06;;;-1.04;62.96
57594;BME280;43423;46.510;6.686;2023-02-10T05:49:39;98271.47;;;-0.99;63.13
57594;BME280;43423;46.510;6.686;2023-02-10T05:52:05;98277.81;;;-1.10;62.59
57594;BME280;43423;46.510;6.686;2023-02-10T05:54:30;98289.53;;;-1.22;63.35
57594;BME280;43423;46.510;6.686;2023-02-10T05:56:57;98284.19;;;-1.19;63.16
57594;BME280;43423;46.510;6.686;2023-02-10T05:59:22;98286.25;;;-1.12;63.92
57594;BME280;43423;46.510;6.686;2023-02-10T06:01:48;98286.25;;;-1.12;64.35
57594;BME280;43423;46.510;6.686;2023-02-10T06:04:13;98289.03;;;-1.08;64.03
57594;BME280;43423;46.510;6.686;2023-02-10T06:06:39;98286.75;;;-1.06;64.24
57594;BME280;43423;46.510;6.686;2023-02-10T06:09:05;98284.97;;;-0.99;64.14
57594;BME280;43423;46.510;6.686;2023-02-10T06:11:31;98283.53;;;-0.93;63.62
57594;BME280;43423;46.510;6.686;2023-02-10T06:13:56;98289.09;;;-0.86;63.77
57594;BME280;43423;46.510;6.686;2023-02-10T06:16:22;98289.53;;;-0.80;63.38
57594;BME280;43423;46.510;6.686;2023-02-10T06:18:47;98286.84;;;-0.80;63.59
57594;BME280;43423;46.510;6.686;2023-02-10T06:21:14;98291.56;;;-0.77;62.91
57594;BME280;43423;46.510;6.686;2023-02-10T06:23:40;98292.75;;;-0.74;62.31
57594;BME280;43423;46.510;6.686;2023-02-10T06:26:06;98286.63;;;-0.71;62.31
57594;BME280;43423;46.510;6.686;2023-02-10T06:28:31;98294.56;;;-0.59;61.88
57594;BME280;43423;46.510;6.686;2023-02-10T06:30:57;98295.16;;;-0.69;62.51
57594;BME280;43423;46.510;6.686;2023-02-10T06:33:23;98283.97;;;-0.91;62.97
57594;BME280;43423;46.510;6.686;2023-02-10T06:35:49;98294.81;;;-0.87;63.04
57594;BME280;43423;46.510;6.686;2023-02-10T06:38:15;98301.59;;;-0.97;63.56
57594;BME280;43423;46.510;6.686;2023-02-10T06:40:41;98301.91;;;-1.02;63.67
57594;BME280;43423;46.510;6.686;2023-02-10T06:43:06;98304.00;;;-0.92;63.99
57594;BME280;43423;46.510;6.686;2023-02-10T06:45:32;98306.47;;;-0.83;63.48
57594;BME280;43423;46.510;6.686;2023-02-10T06:47:58;98311.81;;;-0.87;63.93
57594;BME280;43423;46.510;6.686;2023-02-10T06:50:24;98302.88;;;-0.91;64.09
57594;BME280;43423;46.510;6.686;2023-02-10T06:52:50;98302.13;;;-0.88;64.29
57594;BME280;43423;46.510;6.686;2023-02-10T06:55:15;98300.28;;;-0.83;63.96
57594;BME280;43423;46.510;6.686;2023-02-10T06:57:41;98308.03;;;-0.82;64.24
57594;BME280;43423;46.510;6.686;2023-02-10T07:00:09;98305.41;;;-0.78;64.50
57594;BME280;43423;46.510;6.686;2023-02-10T07:02:35;98310.22;;;-0.68;63.95
57594;BME280;43423;46.510;6.686;2023-02-10T07:05:02;98311.06;;;-0.64;63.22
57594;BME280;43423;46.510;6.686;2023-02-10T07:07:29;98313.28;;;-0.70;63.65
57594;BME280;43423;46.510;6.686;2023-02-10T07:09:55;98310.59;;;-0.70;63.78
57594;BME280;43423;46.510;6.686;2023-02-10T07:12:20;98312.94;;;-0.68;63.73
57594;BME280;43423;46.510;6.686;2023-02-10T07:14:46;98319.03;;;-0.71;63.91
57594;BME280;43423;46.510;6.686;2023-02-10T07:17:12;98312.97;;;-0.65;63.95
57594;BME280;43423;46.510;6.686;2023-02-10T07:19:37;98316.94;;;-0.59;63.82
57594;BME280;43423;46.510;6.686;2023-02-10T07:22:03;98320.16;;;-0.53;63.44
57594;BME280;43423;46.510;6.686;2023-02-10T07:24:32;98314.88;;;-0.46;62.99
57594;BME280;43423;46.510;6.686;2023-02-10T07:26:58;98317.81;;;-0.54;63.28
57594;BME280;43423;46.510;6.686;2023-02-10T07:29:24;98320.63;;;-0.70;63.34
57594;BME280;43423;46.510;6.686;2023-02-10T07:31:49;98321.53;;;-0.63;62.78
57594;BME280;43423;46.510;6.686;2023-02-10T07:34:15;98330.41;;;-0.62;62.35
57594;BME280;43423;46.510;6.686;2023-02-10T07:36:41;98334.13;;;-0.90;61.29
57594;BME280;43423;46.510;6.686;2023-02-10T07:39:07;98334.94;;;-0.66;61.73
57594;BME280;43423;46.510;6.686;2023-02-10T07:41:33;98328.63;;;-0.54;60.06
57594;BME280;43423;46.510;6.686;2023-02-10T07:43:59;98331.28;;;-0.77;60.57
57594;BME280;43423;46.510;6.686;2023-02-10T07:46:24;98329.66;;;-0.82;60.25
57594;BME280;43423;46.510;6.686;2023-02-10T07:48:50;98334.66;;;-0.61;60.60
57594;BME280;43423;46.510;6.686;2023-02-10T07:51:15;98336.22;;;-0.60;60.07
57594;BME280;43423;46.510;6.686;2023-02-10T07:53:41;98327.16;;;-0.48;60.07
57594;BME280;43423;46.510;6.686;2023-02-10T07:56:07;98337.16;;;-0.30;59.57
57594;BME280;43423;46.510;6.686;2023-02-10T07:58:33;98334.13;;;-0.02;59.64
57594;BME280;43423;46.510;6.686;2023-02-10T08:00:59;98336.00;;;0.21;59.10
57594;BME280;43423;46.510;6.686;2023-02-10T08:03:25;98338.75;;;0.51;59.37
57594;BME280;43423;46.510;6.686;2023-02-10T08:05:50;98334.94;;;0.82;58.56
57594;BME280;43423;46.510;6.686;2023-02-10T08:08:16;98340.03;;;0.87;58.39
57594;BME280;43423;46.510;6.686;2023-02-10T08:10:41;98337.25;;;1.17;57.67
57594;BME280;43423;46.510;6.686;2023-02-10T08:13:07;98334.41;;;1.36;57.65
57594;BME280;43423;46.510;6.686;2023-02-10T08:15:33;98341.09;;;1.50;56.74
57594;BME280;43423;46.510;6.686;2023-02-10T08:18:00;98333.16;;;1.71;56.34
57594;BME280;43423;46.510;6.686;2023-02-10T08:20:26;98335.63;;;1.87;56.31
57594;BME280;43423;46.510;6.686;2023-02-10T08:22:56;98334.78;;;2.27;54.99
57594;BME280;43423;46.510;6.686;2023-02-10T08:25:22;98335.69;;;2.49;54.88
57594;BME280;43423;46.510;6.686;2023-02-10T08:27:47;98337.72;;;2.63;54.19
57594;BME280;43423;46.510;6.686;2023-02-10T08:30:13;98343.41;;;3.16;52.69
57594;BME280;43423;46.510;6.686;2023-02-10T08:32:39;98342.28;;;3.28;51.28
57594;BME280;43423;46.510;6.686;2023-02-10T08:35:04;98339.56;;;3.35;51.67
57594;BME280;43423;46.510;6.686;2023-02-10T08:37:30;98341.09;;;3.29;50.37
57594;BME280;43423;46.510;6.686;2023-02-10T08:39:55;98345.75;;;3.28;51.81
57594;BME280;43423;46.510;6.686;2023-02-10T08:42:21;98350.06;;;3.36;52.27
57594;BME280;43423;46.510;6.686;2023-02-10T08:44:46;98350.47;;;3.42;51.77
57594;BME280;43423;46.510;6.686;2023-02-10T08:47:12;98344.25;;;3.45;51.96
57594;BME280;43423;46.510;6.686;2023-02-10T08:49:40;98345.44;;;3.62;50.86
57594;BME280;43423;46.510;6.686;2023-02-10T08:52:06;98348.19;;;3.76;50.44
57594;BME280;43423;46.510;6.686;2023-02-10T08:54:31;98351.72;;;3.84;48.80
57594;BME280;43423;46.510;6.686;2023-02-10T08:56:57;98346.66;;;3.86;49.83
57594;BME280;43423;46.510;6.686;2023-02-10T08:59:22;98353.66;;;3.94;50.33
57594;BME280;43423;46.510;6.686;2023-02-10T09:01:48;98345.91;;;3.89;48.79
57594;BME280;43423;46.510;6.686;2023-02-10T09:04:14;98351.72;;;4.16;47.67
57594;BME280;43423;46.510;6.686;2023-02-10T09:06:41;98350.16;;;4.33;47.44
57594;BME280;43423;46.510;6.686;2023-02-10T09:09:19;98350.16;;;4.29;46.65
57594;BME280;43423;46.510;6.686;2023-02-10T09:11:48;98357.56;;;4.43;46.36
57594;BME280;43423;46.510;6.686;2023-02-10T09:14:13;98352.47;;;4.52;46.02
57594;BME280;43423;46.510;6.686;2023-02-10T09:16:39;98354.38;;;4.69;46.38
57594;BME280;43423;46.510;6.686;2023-02-10T09:19:05;98352.81;;;4.75;46.09
57594;BME280;43423;46.510;6.686;2023-02-10T09:21:31;98355.13;;;4.73;46.29
57594;BME280;43423;46.510;6.686;2023-02-10T09:23:58;98351.28;;;4.57;44.71
57594;BME280;43423;46.510;6.686;2023-02-10T09:26:23;98350.50;;;4.74;44.00
57594;BME280;43423;46.510;6.686;2023-02-10T09:28:49;98348.56;;;4.67;44.16
57594;BME280;43423;46.510;6.686;2023-02-10T09:31:15;98348.47;;;4.89;44.81
57594;BME280;43423;46.510;6.686;2023-02-10T09:33:43;98347.28;;;4.97;43.29
57594;BME280;43423;46.510;6.686;2023-02-10T09:36:17;98354.66;;;5.03;43.18
57594;BME280;43423;46.510;6.686;2023-02-10T09:38:43;98359.41;;;4.78;42.93
57594;BME280;43423;46.510;6.686;2023-02-10T09:55:33;98365.72;;;5.59;42.60
57594;BME280;43423;46.510;6.686;2023-02-10T09:58:12;98359.91;;;5.50;43.06
57594;BME280;43423;46.510;6.686;2023-02-10T10:00:43;98358.56;;;5.06;42.64
57594;BME280;43423;46.510;6.686;2023-02-10T10:03:13;98369.84;;;5.08;43.63
57594;BME280;43423;46.510;6.686;2023-02-10T10:14:04;98373.34;;;5.05;43.62
57594;BME280;43423;46.510;6.686;2023-02-10T10:16:48;98370.66;;;5.01;44.38
57594;BME280;43423;46.510;6.686;2023-02-10T10:19:28;98369.03;;;5.22;44.20
57594;BME280;43423;46.510;6.686;2023-02-10T10:30:16;98377.75;;;5.65;42.22
57594;BME280;43423;46.510;6.686;2023-02-10T10:32:45;98376.66;;;5.52;43.44
57594;BME280;43423;46.510;6.686;2023-02-10T10:35:15;98380.13;;;5.63;42.72
57594;BME280;43423;46.510;6.686;2023-02-10T10:37:41;98373.44;;;5.68;43.47
57594;BME280;43423;46.510;6.686;2023-02-10T10:40:07;98366.47;;;5.63;42.33
57594;BME280;43423;46.510;6.686;2023-02-10T10:42:40;98371.25;;;5.41;43.91
57594;BME280;43423;46.510;6.686;2023-02-10T10:45:26;98363.22;;;5.86;42.73
57594;BME280;43423;46.510;6.686;2023-02-10T10:48:01;98369.25;;;6.15;42.65
57594;BME280;43423;46.510;6.686;2023-02-10T10:50:30;98361.84;;;6.15;41.92
57594;BME280;43423;46.510;6.686;2023-02-10T10:52:57;98373.53;;;6.20;42.53
57594;BME280;43423;46.510;6.686;2023-02-10T10:55:34;98362.91;;;6.29;42.06
57594;BME280;43423;46.510;6.686;2023-02-10T10:58:02;98359.19;;;6.05;41.96
57594;BME280;43423;46.510;6.686;2023-02-10T11:00:33;98359.66;;;6.44;41.85
57594;BME280;43423;46.510;6.686;2023-02-10T11:03:01;98357.81;;;6.34;42.06
57594;BME280;43423;46.510;6.686;2023-02-10T11:05:30;98357.75;;;6.38;42.14
57594;BME280;43423;46.510;6.686;2023-02-10T11:07:57;98354.25;;;6.37;42.13
57594;BME280;43423;46.510;6.686;2023-02-10T11:10:49;98348.28;;;6.50;41.91
57594;BME280;43423;46.510;6.686;2023-02-10T11:13:21;98342.66;;;6.23;43.32
57594;BME280;43423;46.510;6.686;2023-02-10T11:15:47;98344.75;;;6.53;41.96
57594;BME280;43423;46.510;6.686;2023-02-10T11:18:21;98351.91;;;6.77;41.96
57594;BME280;43423;46.510;6.686;2023-02-10T11:20:54;98345.59;;;6.84;41.20
57594;BME280;43423;46.510;6.686;2023-02-10T11:23:20;98333.16;;;6.41;41.73
57594;BME280;43423;46.510;6.686;2023-02-10T11:25:55;98329.00;;;6.26;42.66
57594;BME280;43423;46.510;6.686;2023-02-10T11:28:24;98325.25;;;6.47;43.37
57594;BME280;43423;46.510;6.686;2023-02-10T11:31:03;98313.59;;;6.43;42.54
57594;BME280;43423;46.510;6.686;2023-02-10T11:33:32;98320.13;;;6.56;43.02
57594;BME280;43423;46.510;6.686;2023-02-10T11:36:07;98317.03;;;6.88;42.78
57594;BME280;43423;46.510;6.686;2023-02-10T11:38:34;98321.41;;;6.79;43.42
57594;BME280;43423;46.510;6.686;2023-02-10T11:41:04;98313.81;;;6.97;43.51
57594;BME280;43423;46.510;6.686;2023-02-10T11:43:41;98318.66;;;6.82;43.37
57594;BME280;43423;46.510;6.686;2023-02-10T11:46:19;98311.38;;;7.03;45.39
57594;BME280;43423;46.510;6.686;2023-02-10T11:48:53;98309.22;;;7.48;44.91
57594;BME280;43423;46.510;6.686;2023-02-10T11:51:19;98315.31;;;7.32;43.61
57594;BME280;43423;46.510;6.686;2023-02-10T11:53:46;98323.91;;;7.00;45.18
57594;BME280;43423;46.510;6.686;2023-02-10T12:02:13;98321.94;;;7.04;45.59
57594;BME280;43423;46.510;6.686;2023-02-10T12:05:16;98314.00;;;6.79;44.65
57594;BME280;43423;46.510;6.686;2023-02-10T12:07:54;98315.81;;;6.93;44.15
57594;BME280;43423;46.510;6.686;2023-02-10T12:18:39;98315.34;;;7.59;43.61
57594;BME280;43423;46.510;6.686;2023-02-10T12:21:40;98308.25;;;7.62;42.59
57594;BME280;43423;46.510;6.686;2023-02-10T12:26:52;98315.63;;;7.38;44.77
57594;BME280;43423;46.510;6.686;2023-02-10T12:35:05;98316.06;;;7.36;44.01
57594;BME280;43423;46.510;6.686;2023-02-10T12:40:40;98308.91;;;7.96;44.23
57594;BME280;43423;46.510;6.686;2023-02-10T12:43:37;98310.59;;;7.63;43.47
57594;BME280;43423;46.510;6.686;2023-02-10T12:51:51;98310.94;;;7.92;43.81
57594;BME280;43423;46.510;6.686;2023-02-10T12:54:36;98317.13;;;7.96;44.41
57594;BME280;43423;46.510;6.686;2023-02-10T12:57:13;98309.56;;;8.04;44.58
57594;BME280;43423;46.510;6.686;2023-02-10T12:59:53;98308.53;;;7.94;44.24
57594;BME280;43423;46.510;6.686;2023-02-10T13:02:36;98305.22;;;8.30;43.03
57594;BME280;43423;46.510;6.686;2023-02-10T13:05:13;98307.97;;;8.06;41.06
57594;BME280;43423;46.510;6.686;2023-02-10T13:07:57;98300.22;;;8.01;40.06
57594;BME280;43423;46.510;6.686;2023-02-10T13:10:44;98305.56;;;7.85;41.53
57594;BME280;43423;46.510;6.686;2023-02-10T13:13:14;98304.59;;;7.95;42.23
57594;BME280;43423;46.510;6.686;2023-02-10T13:15:43;98300.22;;;8.01;40.44
57594;BME280;43423;46.510;6.686;2023-02-10T13:18:21;98304.50;;;8.26;41.63
57594;BME280;43423;46.510;6.686;2023-02-10T13:23:42;98306.19;;;8.43;42.42
57594;BME280;43423;46.510;6.686;2023-02-10T13:34:26;98308.31;;;8.55;36.44
57594;BME280;43423;46.510;6.686;2023-02-10T13:37:06;98298.19;;;8.52;35.46
57594;BME280;43423;46.510;6.686;2023-02-10T13:39:33;98300.22;;;8.25;36.25
57594;BME280;43423;46.510;6.686;2023-02-10T13:42:20;98302.53;;;8.50;37.65
57594;BME280;43423;46.510;6.686;2023-02-10T13:44:57;98293.91;;;8.51;36.88
57594;BME280;43423;46.510;6.686;2023-02-10T13:47:37;98285.25;;;8.29;34.47
57594;BME280;43423;46.510;6.686;2023-02-10T13:50:19;98299.16;;;8.42;35.12
57594;BME280;43423;46.510;6.686;2023-02-10T13:52:54;98294.56;;;8.35;36.15
57594;BME280;43423;46.510;6.686;2023-02-10T13:57:56;98294.19;;;8.57;39.06
57594;BME280;43423;46.510;6.686;2023-02-10T14:00:25;98285.34;;;8.89;38.29
57594;BME280;43423;46.510;6.686;2023-02-10T14:05:37;98284.53;;;9.08;39.59
57594;BME280;43423;46.510;6.686;2023-02-10T14:08:25;98294.97;;;9.17;38.19
57594;BME280;43423;46.510;6.686;2023-02-10T14:11:05;98294.75;;;8.68;36.71
57594;BME280;43423;46.510;6.686;2023-02-10T14:13:59;98296.84;;;8.60;37.74
57594;BME280;43423;46.510;6.686;2023-02-10T14:16:45;98298.94;;;8.53;40.05
57594;BME280;43423;46.510;6.686;2023-02-10T14:19:29;98298.06;;;8.59;39.47
57594;BME280;43423;46.510;6.686;2023-02-10T14:21:57;98299.09;;;8.46;40.03
57594;BME280;43423;46.510;6.686;2023-02-10T14:24:32;98292.03;;;8.88;39.81
57594;BME280;43423;46.510;6.686;2023-02-10T14:27:01;98299.13;;;8.65;40.92
57594;BME280;43423;46.510;6.686;2023-02-10T14:29:29;98291.63;;;8.70;41.26
57594;BME280;43423;46.510;6.686;2023-02-10T14:31:58;98303.41;;;8.66;42.29
57594;BME280;43423;46.510;6.686;2023-02-10T14:34:30;98304.47;;;8.73;42.64
57594;BME280;43423;46.510;6.686;2023-02-10T14:36:57;98308.53;;;8.84;42.32
57594;BME280;43423;46.510;6.686;2023-02-10T14:39:26;98301.72;;;9.12;41.58
57594;BME280;43423;46.510;6.686;2023-02-10T14:41:54;98304.53;;;9.29;41.51
57594;BME280;43423;46.510;6.686;2023-02-10T14:44:38;98313.41;;;8.97;41.10
57594;BME280;43423;46.510;6.686;2023-02-10T14:47:06;98302.84;;;8.55;42.36
57594;BME280;43423;46.510;6.686;2023-02-10T14:49:32;98301.28;;;8.31;42.89
57594;BME280;43423;46.510;6.686;2023-02-10T14:52:02;98294.38;;;8.23;44.43
57594;BME280;43423;46.510;6.686;2023-02-10T14:54:28;98305.28;;;8.03;43.37